Time;durP1;ratioP1;P1;durP2;ratioP2;P2;SDS_P1;SDS_P2;PMS_P1;PMS_P2;Temp;Humidity;BMP_temperature;BMP_pressure;BME280_temperature;BME280_humidity;BME280_pressure;Samples;Min_cycle;Max_cycle;Signal;HPM_P1;HPM_P2
2022/03/14 00:02:56;;;;;;;14.60;7.00;;;8.10;38.40;;;;;;5015771;28;20048;-71
2022/03/14 00:08:45;;;;;;;10.32;5.95;;;8.00;38.80;;;;;;5015575;28;20033;-71
2022/03/14 00:14:32;;;;;;;10.05;6.75;;;7.80;39.60;;;;;;5015256;28;20100;-72
2022/03/14 00:20:20;;;;;;;13.85;6.63;;;7.90;38.80;;;;;;5012330;28;20036;-70
2022/03/14 00:22:46;;;;;;;15.43;6.70;;;7.90;40.00;;;;;;5012213;28;20100;-71
2022/03/14 00:25:12;;;;;;;10.98;6.13;;;7.90;38.90;;;;;;5011804;28;20522;-71
2022/03/14 00:27:38;;;;;;;12.95;6.57;;;7.90;38.80;;;;;;5011847;28;20470;-71
2022/03/14 00:30:07;;;;;;;13.25;7.05;;;7.80;39.70;;;;;;5011778;28;20402;-71
2022/03/14 00:32:32;;;;;;;16.00;6.63;;;7.80;39.00;;;;;;5011722;28;20104;-71
2022/03/14 00:38:20;;;;;;;14.52;6.53;;;7.80;39.50;;;;;;5010463;28;20111;-70
2022/03/14 00:40:46;;;;;;;15.18;6.47;;;7.80;39.50;;;;;;5011658;28;20029;-71
2022/03/14 00:43:12;;;;;;;18.23;6.45;;;7.80;38.90;;;;;;5012054;28;20079;-71
2022/03/14 00:45:37;;;;;;;16.40;6.60;;;7.80;39.90;;;;;;5011643;28;20030;-70
2022/03/14 00:48:03;;;;;;;14.77;6.28;;;7.70;40.10;;;;;;5010687;28;20548;-72
2022/03/14 00:50:29;;;;;;;16.02;6.88;;;7.60;41.20;;;;;;5011947;28;20026;-71
2022/03/14 00:52:54;;;;;;;12.02;6.45;;;7.60;40.50;;;;;;5011462;28;20030;-70
2022/03/14 00:55:20;;;;;;;15.23;6.32;;;7.60;40.40;;;;;;5012143;28;20036;-71
2022/03/14 00:57:45;;;;;;;15.75;7.07;;;7.60;40.50;;;;;;5011228;28;20368;-71
2022/03/14 01:00:12;;;;;;;15.55;6.97;;;7.60;40.70;;;;;;5011665;28;20026;-72
2022/03/14 01:02:37;;;;;;;11.68;5.95;;;7.50;39.80;;;;;;5010752;28;20030;-71
2022/03/14 01:05:03;;;;;;;17.05;7.55;;;7.50;40.30;;;;;;5011330;28;20509;-70
2022/03/14 01:07:29;;;;;;;18.08;6.38;;;7.50;40.10;;;;;;5010705;28;20421;-71
2022/03/14 01:09:54;;;;;;;16.05;7.22;;;7.50;39.90;;;;;;5011251;28;20113;-71
2022/03/14 01:12:20;;;;;;;14.65;7.00;;;7.40;40.00;;;;;;5011212;28;20042;-71
2022/03/14 01:14:45;;;;;;;11.48;6.03;;;7.30;41.50;;;;;;5011297;28;20041;-71
2022/03/14 01:17:11;;;;;;;17.30;6.68;;;7.30;40.70;;;;;;5011239;28;20064;-71
2022/03/14 01:19:38;;;;;;;11.77;6.03;;;7.30;41.60;;;;;;5010340;28;20359;-71
2022/03/14 01:22:10;;;;;;;13.73;6.53;;;7.20;41.20;;;;;;5011309;28;20478;-71
2022/03/14 01:24:38;;;;;;;15.98;6.78;;;7.30;40.60;;;;;;5011077;28;20033;-70
2022/03/14 01:27:07;;;;;;;15.32;7.18;;;7.30;40.70;;;;;;5011115;28;20038;-70
2022/03/14 01:29:34;;;;;;;17.92;6.85;;;7.30;40.60;;;;;;5011087;28;20038;-72
2022/03/14 01:32:03;;;;;;;19.73;7.00;;;7.30;40.50;;;;;;5010909;28;20092;-70
2022/03/14 01:34:28;;;;;;;14.80;6.53;;;7.20;40.30;;;;;;5010428;28;20026;-70
2022/03/14 01:36:54;;;;;;;18.77;6.47;;;7.20;40.30;;;;;;5011150;28;20045;-70
2022/03/14 01:39:20;;;;;;;19.80;7.28;;;7.10;41.40;;;;;;5011116;28;20061;-70
2022/03/14 01:41:46;;;;;;;14.30;7.45;;;7.10;40.70;;;;;;5010990;28;20026;-69
2022/03/14 01:44:11;;;;;;;16.33;6.20;;;7.20;40.90;;;;;;5010898;28;20034;-72
2022/03/14 01:46:37;;;;;;;15.02;6.75;;;7.20;41.70;;;;;;5011528;28;20026;-70
2022/03/14 01:49:03;;;;;;;17.42;6.93;;;7.10;42.20;;;;;;5011034;28;20026;-71
2022/03/14 01:51:29;;;;;;;13.65;6.80;;;7.10;42.30;;;;;;5009918;28;20033;-70
2022/03/14 01:53:55;;;;;;;12.30;6.32;;;7.00;41.30;;;;;;5010920;28;20045;-70
2022/03/14 01:56:21;;;;;;;15.23;7.07;;;7.00;41.80;;;;;;5011039;28;20461;-70
2022/03/14 01:58:47;;;;;;;14.02;7.03;;;7.00;41.40;;;;;;5011076;28;20030;-70
2022/03/14 02:01:13;;;;;;;14.45;6.55;;;7.00;40.40;;;;;;5010808;28;20053;-70
2022/03/14 02:03:40;;;;;;;15.13;7.20;;;7.00;40.50;;;;;;5010753;28;20094;-71
2022/03/14 02:06:06;;;;;;;11.77;6.40;;;6.90;40.40;;;;;;5010982;28;20038;-71
2022/03/14 02:08:32;;;;;;;14.68;6.63;;;6.90;40.60;;;;;;5010765;28;20034;-71
2022/03/14 02:10:57;;;;;;;13.52;6.72;;;6.90;40.50;;;;;;5010603;28;20096;-69
2022/03/14 02:13:23;;;;;;;16.60;6.80;;;6.80;40.40;;;;;;5012282;28;20078;-70
2022/03/14 02:15:49;;;;;;;14.77;6.47;;;6.90;40.60;;;;;;5014355;28;20038;-70
2022/03/14 02:18:15;;;;;;;17.25;6.95;;;6.90;40.30;;;;;;5014135;28;20149;-70
2022/03/14 02:20:40;;;;;;;14.85;6.38;;;6.90;40.40;;;;;;5013871;28;20053;-71
2022/03/14 02:23:06;;;;;;;15.13;7.53;;;6.80;40.60;;;;;;5013958;28;20018;-70
2022/03/14 02:25:35;;;;;;;16.35;7.15;;;6.90;41.30;;;;;;5014763;28;20030;-71
2022/03/14 02:28:02;;;;;;;16.10;6.32;;;6.80;41.80;;;;;;5014033;28;20034;-71
2022/03/14 02:30:28;;;;;;;13.55;7.20;;;6.90;41.00;;;;;;5013909;28;20400;-71
2022/03/14 02:32:54;;;;;;;18.48;7.05;;;6.90;41.90;;;;;;5013849;28;20134;-71
2022/03/14 02:35:19;;;;;;;13.38;6.57;;;6.90;41.80;;;;;;5013692;28;20418;-70
2022/03/14 02:37:45;;;;;;;17.45;7.28;;;6.90;41.10;;;;;;5014573;28;20399;-70
2022/03/14 02:40:11;;;;;;;14.82;6.70;;;6.90;41.30;;;;;;5013854;28;20268;-70
2022/03/14 02:42:37;;;;;;;14.13;7.07;;;6.80;40.50;;;;;;5013695;28;20034;-71
2022/03/14 02:45:04;;;;;;;14.57;6.88;;;6.70;40.70;;;;;;5013748;28;20061;-71
2022/03/14 02:47:30;;;;;;;14.85;6.43;;;6.70;40.30;;;;;;5014541;28;20061;-72
2022/03/14 02:49:56;;;;;;;11.23;6.25;;;6.70;40.80;;;;;;5013344;28;20089;-71
2022/03/14 02:52:21;;;;;;;16.20;7.47;;;6.60;40.80;;;;;;5013858;28;20029;-70
2022/03/14 02:54:47;;;;;;;15.25;6.63;;;6.60;41.20;;;;;;5013302;28;20053;-70
2022/03/14 02:57:12;;;;;;;11.73;5.88;;;6.60;43.10;;;;;;5013297;28;20041;-69
2022/03/14 02:59:38;;;;;;;15.85;6.55;;;6.50;42.00;;;;;;5013329;28;20065;-70
2022/03/14 03:02:05;;;;;;;14.77;6.63;;;6.60;41.50;;;;;;5013399;28;20683;-71
2022/03/14 03:04:32;;;;;;;16.02;7.07;;;6.50;41.50;;;;;;5013900;28;20014;-71
2022/03/14 03:06:58;;;;;;;12.88;6.35;;;6.50;41.40;;;;;;5013292;28;20033;-71
2022/03/14 03:09:26;;;;;;;14.85;6.53;;;6.50;41.50;;;;;;5013062;28;20030;-71
2022/03/14 03:11:53;;;;;;;16.10;6.65;;;6.40;41.40;;;;;;5012997;28;20367;-70
2022/03/14 03:14:18;;;;;;;12.05;6.45;;;6.40;41.20;;;;;;5012306;28;20029;-69
2022/03/14 03:16:44;;;;;;;16.20;6.95;;;6.40;41.30;;;;;;5013578;28;20041;-71
2022/03/14 03:19:10;;;;;;;12.52;6.50;;;6.30;41.60;;;;;;5012933;28;20036;-70
2022/03/14 03:21:38;;;;;;;14.30;6.78;;;6.30;41.60;;;;;;5011839;28;20050;-70
2022/03/14 03:24:06;;;;;;;20.77;7.45;;;6.30;42.10;;;;;;5012372;28;20041;-70
2022/03/14 03:26:31;;;;;;;19.70;6.82;;;6.30;41.90;;;;;;5012956;28;20037;-70
2022/03/14 03:28:57;;;;;;;15.10;7.57;;;6.40;41.90;;;;;;5012841;28;20026;-70
2022/03/14 03:31:24;;;;;;;13.70;6.75;;;6.30;42.40;;;;;;5013382;28;20029;-70
2022/03/14 03:33:50;;;;;;;17.35;7.45;;;6.40;42.20;;;;;;5012757;28;20434;-70
2022/03/14 03:36:16;;;;;;;19.25;7.80;;;6.40;41.50;;;;;;5011640;28;20340;-70
2022/03/14 03:38:42;;;;;;;15.35;7.38;;;6.40;41.90;;;;;;5012663;28;20065;-71
2022/03/14 03:41:08;;;;;;;11.75;6.95;;;6.30;42.60;;;;;;5011464;28;20038;-70
2022/03/14 03:43:33;;;;;;;20.25;7.88;;;6.30;43.00;;;;;;5013053;28;20355;-70
2022/03/14 03:45:59;;;;;;;11.88;6.15;;;6.20;43.00;;;;;;5012538;28;20046;-70
2022/03/14 03:48:25;;;;;;;13.93;6.82;;;6.10;43.10;;;;;;5012519;28;20034;-70
2022/03/14 03:50:50;;;;;;;15.63;6.90;;;6.10;42.90;;;;;;5012568;28;20030;-69
2022/03/14 03:53:16;;;;;;;21.65;6.93;;;6.00;43.90;;;;;;5012284;28;20045;-69
2022/03/14 03:55:41;;;;;;;17.08;6.68;;;6.00;43.40;;;;;;5011783;28;20117;-70
2022/03/14 03:58:07;;;;;;;13.80;7.13;;;6.00;43.60;;;;;;5012210;28;20451;-70
2022/03/14 04:00:33;;;;;;;14.85;7.32;;;6.00;44.00;;;;;;5012382;28;20033;-70
2022/03/14 04:02:59;;;;;;;17.08;7.22;;;6.00;43.80;;;;;;5011320;28;20046;-71
2022/03/14 04:05:25;;;;;;;15.57;7.05;;;5.90;42.90;;;;;;5012256;28;20061;-70
2022/03/14 04:07:54;;;;;;;13.80;6.47;;;5.90;43.00;;;;;;5012575;28;20411;-70
2022/03/14 04:10:20;;;;;;;16.58;6.50;;;5.90;43.10;;;;;;5012325;28;20133;-69
2022/03/14 04:12:45;;;;;;;13.27;6.63;;;5.90;42.80;;;;;;5012062;28;20113;-70
2022/03/14 04:15:12;;;;;;;11.35;6.28;;;5.90;43.00;;;;;;5010930;28;20613;-70
2022/03/14 04:17:42;;;;;;;16.77;7.28;;;5.90;43.30;;;;;;5011992;28;20030;-70
2022/03/14 04:20:11;;;;;;;16.30;6.97;;;5.80;43.60;;;;;;5011647;28;20656;-70
2022/03/14 04:22:38;;;;;;;17.58;7.82;;;5.80;45.10;;;;;;5012280;28;20084;-70
2022/03/14 04:25:06;;;;;;;18.15;7.47;;;5.80;45.10;;;;;;5011945;28;20475;-71
2022/03/14 04:27:32;;;;;;;13.93;6.78;;;5.70;45.20;;;;;;5011794;28;20029;-70
2022/03/14 04:29:58;;;;;;;17.42;6.15;;;5.70;45.00;;;;;;5012110;28;20026;-71
2022/03/14 04:32:24;;;;;;;16.58;8.27;;;5.60;44.40;;;;;;5011586;28;20135;-70
2022/03/14 04:34:50;;;;;;;12.60;6.88;;;5.60;44.30;;;;;;5027582;28;20447;-70
2022/03/14 04:37:15;;;;;;;16.52;7.15;;;5.60;44.70;;;;;;5010752;28;20113;-70
2022/03/14 04:39:41;;;;;;;15.38;7.20;;;5.50;45.30;;;;;;5011473;28;20037;-70
2022/03/14 04:42:08;;;;;;;16.75;6.85;;;5.50;45.80;;;;;;5017624;28;20391;-70
2022/03/14 04:44:34;;;;;;;20.30;6.82;;;5.50;46.60;;;;;;5011606;28;20481;-69
2022/03/14 04:47:00;;;;;;;18.17;6.50;;;5.40;46.70;;;;;;5011986;28;20049;-70
2022/03/14 04:49:27;;;;;;;13.93;7.20;;;5.50;47.20;;;;;;5012117;28;20128;-71
2022/03/14 04:51:54;;;;;;;16.35;6.65;;;5.40;46.60;;;;;;5011465;28;20038;-71
2022/03/14 04:54:20;;;;;;;12.10;6.63;;;5.30;46.60;;;;;;5011698;28;20033;-70
2022/03/14 04:56:45;;;;;;;15.00;7.13;;;5.30;46.40;;;;;;5011517;28;20030;-70
2022/03/14 04:59:11;;;;;;;13.73;6.50;;;5.30;46.30;;;;;;5011356;28;20105;-70
2022/03/14 05:01:37;;;;;;;20.23;7.72;;;5.20;46.20;;;;;;5010785;28;20061;-70
2022/03/14 05:04:03;;;;;;;19.77;7.50;;;5.20;46.30;;;;;;5026843;28;20383;-71
2022/03/14 05:06:29;;;;;;;17.13;7.15;;;5.30;46.30;;;;;;5011229;28;20068;-69
2022/03/14 05:08:54;;;;;;;29.88;8.88;;;5.40;46.30;;;;;;5011179;28;20034;-71
2022/03/14 05:11:20;;;;;;;14.15;7.35;;;5.50;46.10;;;;;;5011120;28;20088;-68
2022/03/14 05:13:45;;;;;;;13.63;7.35;;;5.50;46.50;;;;;;5011540;28;20029;-69
2022/03/14 05:16:11;;;;;;;15.10;6.72;;;5.30;46.50;;;;;;5011262;28;20029;-69
2022/03/14 05:18:38;;;;;;;18.60;7.13;;;5.40;46.40;;;;;;5010094;28;20391;-70
2022/03/14 05:21:04;;;;;;;16.20;6.90;;;5.50;46.60;;;;;;5010972;28;20052;-70
2022/03/14 05:23:30;;;;;;;17.55;7.20;;;5.50;46.60;;;;;;5009963;28;20222;-71
2022/03/14 05:25:56;;;;;;;18.85;8.65;;;5.60;46.50;;;;;;5009928;28;20021;-70
2022/03/14 05:28:22;;;;;;;18.15;7.68;;;5.60;46.20;;;;;;5011566;28;20401;-70
2022/03/14 05:30:48;;;;;;;24.10;7.80;;;5.60;46.30;;;;;;5011461;28;20029;-71
2022/03/14 05:33:13;;;;;;;18.15;7.15;;;5.60;46.40;;;;;;5010956;28;20042;-71
2022/03/14 05:35:39;;;;;;;15.77;7.78;;;5.70;46.30;;;;;;5011189;28;20049;-71
2022/03/14 05:38:04;;;;;;;14.02;7.22;;;5.80;46.20;;;;;;5009897;28;20068;-72
2022/03/14 05:40:30;;;;;;;25.75;8.10;;;5.90;46.10;;;;;;5011333;28;20036;-71
2022/03/14 05:42:57;;;;;;;17.27;7.32;;;5.80;45.70;;;;;;5010995;28;20356;-71
2022/03/14 05:45:23;;;;;;;23.83;7.80;;;5.90;45.60;;;;;;5009846;28;20045;-70
2022/03/14 05:47:49;;;;;;;21.20;7.85;;;6.10;45.10;;;;;;5012321;28;20045;-70
2022/03/14 05:50:15;;;;;;;21.15;7.85;;;6.20;45.30;;;;;;5013642;28;20535;-71
2022/03/14 05:52:42;;;;;;;17.30;8.35;;;6.20;45.30;;;;;;5014979;28;20036;-70
2022/03/14 05:55:08;;;;;;;20.67;8.50;;;6.30;45.80;;;;;;5014635;28;20116;-71
2022/03/14 05:57:34;;;;;;;15.93;7.88;;;6.30;45.70;;;;;;5014436;28;20033;-70
2022/03/14 06:00:00;;;;;;;18.48;7.57;;;6.30;45.50;;;;;;5014371;28;20030;-70
2022/03/14 06:02:25;;;;;;;15.43;7.53;;;6.40;45.40;;;;;;5014566;28;20044;-71
2022/03/14 06:04:53;;;;;;;23.00;8.20;;;6.40;45.40;;;;;;5014855;28;20030;-70
2022/03/14 06:07:21;;;;;;;16.65;7.75;;;6.50;45.40;;;;;;5014501;28;20080;-70
2022/03/14 06:09:48;;;;;;;23.42;8.63;;;6.60;46.10;;;;;;5014448;28;20033;-71
2022/03/14 06:12:30;;;;;;;17.75;7.47;;;6.50;46.20;;;;;;5013085;28;20061;-70
2022/03/14 06:14:58;;;;;;;18.17;7.70;;;6.50;46.00;;;;;;5014137;28;20112;-71
2022/03/14 06:17:24;;;;;;;24.48;8.57;;;6.60;45.60;;;;;;5013803;28;20088;-71
2022/03/14 06:19:50;;;;;;;19.70;7.63;;;6.60;45.30;;;;;;5013203;28;20038;-72
2022/03/14 06:22:21;;;;;;;18.30;7.15;;;6.60;45.80;;;;;;5013989;28;20030;-72
2022/03/14 06:24:48;;;;;;;19.42;7.72;;;6.70;46.30;;;;;;5013949;28;20359;-72
2022/03/14 06:27:18;;;;;;;24.77;9.00;;;6.70;46.80;;;;;;5014032;28;20069;-71
2022/03/14 06:29:44;;;;;;;17.77;7.72;;;6.80;47.20;;;;;;5013859;28;20042;-71
2022/03/14 06:32:11;;;;;;;14.10;7.50;;;6.80;47.50;;;;;;5013619;28;20458;-72
2022/03/14 06:34:37;;;;;;;16.38;7.55;;;6.80;48.10;;;;;;5014192;28;20034;-73
2022/03/14 06:37:06;;;;;;;17.75;7.90;;;6.90;47.80;;;;;;5013652;28;20038;-71
2022/03/14 06:39:32;;;;;;;15.88;7.25;;;7.10;47.40;;;;;;5013861;28;20359;-72
2022/03/14 06:41:58;;;;;;;19.30;8.00;;;7.10;47.40;;;;;;5013968;28;20026;-72
2022/03/14 06:44:26;;;;;;;23.60;8.88;;;7.20;47.30;;;;;;5013579;28;20428;-72
2022/03/14 06:46:52;;;;;;;20.17;8.65;;;7.30;47.30;;;;;;5013779;28;20033;-71
2022/03/14 06:49:18;;;;;;;29.30;10.50;;;7.40;47.20;;;;;;5014170;28;20029;-72
2022/03/14 06:51:44;;;;;;;43.40;10.40;;;7.60;46.90;;;;;;5013420;28;20100;-74
2022/03/14 06:54:09;;;;;;;35.40;9.50;;;7.60;46.80;;;;;;5013311;28;20045;-74
2022/03/14 06:56:37;;;;;;;19.42;8.18;;;7.70;47.00;;;;;;5013467;28;20099;-71
2022/03/14 06:59:03;;;;;;;30.30;8.75;;;7.70;47.40;;;;;;5011338;28;20091;-71
2022/03/14 07:01:30;;;;;;;29.23;8.50;;;7.80;47.30;;;;;;5012588;28;20112;-71
2022/03/14 07:03:56;;;;;;;20.77;8.52;;;7.80;47.00;;;;;;5028009;28;20396;-70
2022/03/14 07:06:22;;;;;;;36.95;9.52;;;7.90;47.30;;;;;;5032163;28;20026;-72
2022/03/14 07:08:50;;;;;;;20.38;8.73;;;7.90;48.20;;;;;;5031684;28;20087;-73
2022/03/14 07:11:16;;;;;;;22.98;8.63;;;8.10;48.60;;;;;;5031562;28;20040;-71
2022/03/14 07:13:42;;;;;;;22.35;8.93;;;8.20;48.10;;;;;;5032316;28;20021;-71
2022/03/14 07:16:07;;;;;;;16.13;8.07;;;8.30;47.60;;;;;;5032180;28;20048;-72
2022/03/14 07:18:34;;;;;;;17.45;8.52;;;8.40;47.60;;;;;;5032542;28;20021;-72
2022/03/14 07:21:00;;;;;;;31.73;8.63;;;8.40;47.90;;;;;;5032240;28;20029;-71
2022/03/14 07:23:26;;;;;;;25.02;9.52;;;8.60;48.40;;;;;;5031279;28;20029;-72
2022/03/14 07:25:52;;;;;;;20.55;8.70;;;8.70;49.10;;;;;;5032231;28;20079;-71
2022/03/14 07:28:20;;;;;;;29.70;9.10;;;8.80;49.50;;;;;;5032739;28;20447;-72
2022/03/14 07:30:46;;;;;;;19.05;8.02;;;8.90;49.70;;;;;;5031284;28;20374;-72
2022/03/14 07:33:12;;;;;;;17.98;8.85;;;9.00;50.40;;;;;;5031031;28;20034;-73
2022/03/14 07:35:38;;;;;;;18.92;9.30;;;9.20;50.40;;;;;;5032134;28;20037;-72
2022/03/14 07:38:04;;;;;;;25.58;9.45;;;9.20;51.10;;;;;;5032140;28;20284;-71
2022/03/14 07:40:30;;;;;;;16.15;8.65;;;9.30;51.70;;;;;;5031046;28;20036;-73
2022/03/14 07:42:58;;;;;;;24.77;10.45;;;9.30;52.60;;;;;;5032911;28;20033;-71
2022/03/14 07:45:25;;;;;;;19.52;10.38;;;9.40;52.90;;;;;;5032812;28;20033;-71
2022/03/14 07:47:55;;;;;;;20.23;9.27;;;9.50;53.20;;;;;;5032241;28;20029;-72
2022/03/14 07:50:20;;;;;;;23.38;10.27;;;9.60;53.90;;;;;;5032249;28;20455;-73
2022/03/14 07:52:49;;;;;;;24.83;11.00;;;9.70;54.10;;;;;;5032661;28;20068;-76
2022/03/14 07:55:15;;;;;;;23.77;10.63;;;9.70;54.50;;;;;;5031260;28;20033;-74
2022/03/14 07:57:42;;;;;;;18.83;10.13;;;9.90;54.10;;;;;;5031107;28;20091;-73
2022/03/14 08:00:11;;;;;;;23.38;10.65;;;10.00;53.70;;;;;;5031170;28;20537;-70
2022/03/14 08:02:37;;;;;;;23.42;10.45;;;10.00;54.60;;;;;;5032932;28;20112;-71
2022/03/14 08:05:04;;;;;;;21.67;9.63;;;10.00;54.90;;;;;;5033358;28;20026;-70
2022/03/14 08:07:30;;;;;;;20.38;10.50;;;10.10;54.50;;;;;;5033697;28;20041;-72
2022/03/14 08:09:56;;;;;;;34.47;11.68;;;10.20;54.30;;;;;;5032138;28;20556;-75
2022/03/14 08:12:22;;;;;;;24.83;10.43;;;10.40;54.80;;;;;;5031792;28;20511;-74
2022/03/14 08:14:49;;;;;;;29.70;12.25;;;10.50;54.90;;;;;;5031397;28;20477;-72
2022/03/14 08:17:16;;;;;;;21.60;11.02;;;10.60;55.30;;;;;;5031732;28;20030;-72
2022/03/14 08:19:42;;;;;;;22.73;11.20;;;10.60;55.60;;;;;;5032077;28;20048;-73
2022/03/14 08:22:10;;;;;;;29.92;11.77;;;10.70;55.50;;;;;;5032948;28;20455;-72
2022/03/14 08:24:35;;;;;;;24.67;12.23;;;10.70;55.70;;;;;;5032971;28;20025;-71
2022/03/14 08:27:01;;;;;;;22.58;10.52;;;10.90;55.50;;;;;;5032703;28;20036;-72
2022/03/14 08:29:31;;;;;;;20.05;11.35;;;10.90;55.90;;;;;;5031549;28;20087;-73
2022/03/14 08:32:00;;;;;;;23.85;12.25;;;11.00;56.30;;;;;;5031502;28;20025;-72
2022/03/14 08:34:27;;;;;;;22.80;11.48;;;11.00;57.10;;;;;;5031776;28;20026;-72
2022/03/14 08:36:52;;;;;;;27.75;12.70;;;11.00;57.30;;;;;;5031577;28;20132;-73
2022/03/14 08:39:18;;;;;;;31.08;12.55;;;11.20;57.50;;;;;;5031172;28;20522;-73
2022/03/14 08:41:43;;;;;;;33.53;12.68;;;11.10;58.60;;;;;;5031885;28;20034;-74
2022/03/14 08:44:09;;;;;;;27.42;10.82;;;11.20;59.10;;;;;;5032428;28;20060;-72
2022/03/14 08:46:35;;;;;;;22.67;10.60;;;11.40;59.40;;;;;;5032648;28;20033;-73
2022/03/14 08:49:01;;;;;;;20.77;10.20;;;11.40;60.50;;;;;;5031180;28;20442;-70
2022/03/14 08:51:28;;;;;;;29.63;12.52;;;11.50;60.80;;;;;;5030259;28;20418;-72
2022/03/14 08:53:54;;;;;;;23.85;10.20;;;11.40;64.10;;;;;;5031608;28;20048;-70
2022/03/14 08:56:20;;;;;;;21.27;10.57;;;11.40;65.70;;;;;;5031073;28;20060;-72
2022/03/14 08:58:46;;;;;;;18.65;10.65;;;11.40;68.80;;;;;;5031135;28;20104;-70
2022/03/14 09:01:12;;;;;;;15.68;9.90;;;11.40;69.40;;;;;;5030821;28;20523;-70
2022/03/14 09:03:38;;;;;;;17.73;9.75;;;11.50;70.50;;;;;;5031804;28;20045;-71
2022/03/14 09:06:04;;;;;;;15.90;9.35;;;11.70;70.40;;;;;;5031317;28;20037;-70
2022/03/14 09:08:31;;;;;;;18.33;9.35;;;11.70;72.60;;;;;;5030086;28;20084;-69
2022/03/14 09:11:00;;;;;;;26.48;9.45;;;11.70;74.10;;;;;;5029739;28;20517;-70
2022/03/14 09:13:25;;;;;;;18.63;9.25;;;11.80;75.00;;;;;;5031510;28;20083;-72
2022/03/14 09:15:51;;;;;;;19.13;9.85;;;11.90;76.60;;;;;;5031393;28;20022;-70
2022/03/14 09:18:17;;;;;;;18.45;9.48;;;12.00;76.90;;;;;;5031599;28;20107;-73
2022/03/14 09:20:44;;;;;;;15.88;9.00;;;12.00;77.30;;;;;;5031468;28;20038;-76
2022/03/14 09:23:10;;;;;;;16.33;9.27;;;12.20;76.90;;;;;;5033369;28;20082;-71
2022/03/14 09:25:36;;;;;;;14.50;8.27;;;12.10;78.60;;;;;;5034239;28;20565;-69
2022/03/14 09:28:03;;;;;;;16.65;8.77;;;12.20;78.00;;;;;;5034631;28;20037;-72
2022/03/14 09:30:29;;;;;;;16.75;8.20;;;12.40;78.30;;;;;;5035256;28;20033;-72
2022/03/14 09:32:55;;;;;;;14.15;8.95;;;12.50;78.50;;;;;;5035375;28;20041;-72
2022/03/14 09:35:24;;;;;;;14.52;8.52;;;12.60;78.50;;;;;;5034367;28;20064;-72
2022/03/14 09:37:50;;;;;;;14.88;9.27;;;12.30;80.50;;;;;;5034925;28;20030;-71
2022/03/14 09:40:19;;;;;;;18.35;8.93;;;12.30;81.30;;;;;;5034762;28;20040;-73
2022/03/14 09:42:50;;;;;;;13.90;7.90;;;12.30;81.70;;;;;;5033464;28;20042;-71
2022/03/14 09:45:16;;;;;;;20.08;8.73;;;12.50;80.90;;;;;;5034893;28;20382;-72
2022/03/14 09:48:03;;;;;;;12.77;7.32;;;12.60;81.50;;;;;;5035547;28;20033;-72
2022/03/14 09:50:33;;;;;;;13.23;6.15;;;12.40;81.80;;;;;;5034473;28;20048;-70
2022/03/14 09:53:03;;;;;;;9.23;5.53;;;12.40;81.80;;;;;;5034459;28;20188;-70
2022/03/14 09:55:29;;;;;;;11.13;5.05;;;12.30;81.10;;;;;;5034433;28;20474;-71
2022/03/14 09:57:55;;;;;;;10.13;5.72;;;12.20;81.50;;;;;;5033988;28;20360;-70
2022/03/14 10:00:21;;;;;;;8.70;5.70;;;12.20;82.00;;;;;;5034150;28;20064;-70
2022/03/14 10:02:47;;;;;;;11.35;6.18;;;12.20;81.90;;;;;;5033758;28;20053;-70
2022/03/14 10:05:15;;;;;;;8.80;5.43;;;12.20;81.90;;;;;;5033889;28;20115;-71
2022/03/14 10:07:45;;;;;;;10.40;6.07;;;12.30;82.20;;;;;;5034863;28;20032;-71
2022/03/14 10:10:12;;;;;;;9.38;5.10;;;12.20;84.30;;;;;;5033669;28;20123;-73
2022/03/14 10:12:39;;;;;;;10.98;6.25;;;12.20;85.30;;;;;;5033487;28;20033;-72
2022/03/14 10:15:06;;;;;;;9.32;5.78;;;12.20;86.20;;;;;;5033829;28;20032;-72
2022/03/14 10:17:35;;;;;;;7.45;5.47;;;12.20;87.00;;;;;;5032907;28;20037;-71
2022/03/14 10:20:02;;;;;;;9.65;5.95;;;12.00;88.90;;;;;;5033404;28;20048;-72
2022/03/14 10:22:36;;;;;;;14.15;7.05;;;12.10;88.70;;;;;;5036858;28;20018;-73
2022/03/14 10:25:10;;;;;;;11.27;6.43;;;12.00;89.90;;;;;;5041798;28;20049;-73
2022/03/14 10:27:37;;;;;;;10.43;6.53;;;12.10;90.30;;;;;;5046951;28;20055;-73
2022/03/14 10:30:05;;;;;;;12.07;7.07;;;12.10;90.30;;;;;;5041172;28;20048;-73
2022/03/14 10:32:33;;;;;;;12.63;6.75;;;12.00;90.70;;;;;;5044272;28;20045;-75
2022/03/14 10:35:06;;;;;;;10.63;6.47;;;11.80;91.20;;;;;;5034289;28;20442;-77
2022/03/14 10:37:34;;;;;;;11.82;7.20;;;11.90;91.40;;;;;;5034631;28;20463;-72
2022/03/14 10:40:04;;;;;;;14.25;7.38;;;11.90;91.60;;;;;;5034198;28;20040;-75
2022/03/14 10:42:41;;;;;;;15.05;7.63;;;11.90;91.70;;;;;;5033091;28;20040;-71
2022/03/14 10:45:11;;;;;;;12.38;7.38;;;11.80;92.10;;;;;;5033126;28;20029;-74
2022/03/14 10:47:42;;;;;;;12.30;7.53;;;11.80;92.20;;;;;;5034376;28;20049;-73
2022/03/14 10:50:08;;;;;;;13.55;7.13;;;11.90;92.10;;;;;;5034829;28;20056;-75
2022/03/14 10:52:34;;;;;;;11.15;6.90;;;12.10;92.30;;;;;;5032780;28;20128;-73
2022/03/14 10:55:00;;;;;;;13.73;8.77;;;12.10;92.80;;;;;;5032933;28;20116;-70
2022/03/14 10:57:29;;;;;;;11.95;7.38;;;12.20;92.80;;;;;;5032744;28;20168;-75
2022/03/14 10:59:56;;;;;;;16.05;7.53;;;12.20;92.40;;;;;;5032896;28;20137;-74
2022/03/14 11:02:26;;;;;;;12.80;7.13;;;12.30;92.50;;;;;;5032900;28;20097;-73
2022/03/14 11:04:57;;;;;;;10.80;6.88;;;12.20;92.60;;;;;;5032796;28;20026;-73
2022/03/14 11:07:27;;;;;;;10.95;6.80;;;12.30;92.70;;;;;;5033366;28;20025;-75
2022/03/14 11:09:56;;;;;;;12.40;7.03;;;12.40;92.50;;;;;;5031691;28;20038;-73
2022/03/14 11:12:24;;;;;;;14.98;7.82;;;12.40;92.40;;;;;;5032292;28;20483;-73
2022/03/14 11:15:09;;;;;;;12.77;7.43;;;12.50;92.50;;;;;;5032727;28;20112;-74
2022/03/14 11:17:36;;;;;;;13.50;7.00;;;12.40;92.20;;;;;;5032518;28;20471;-74
2022/03/14 11:20:02;;;;;;;11.98;7.50;;;12.40;92.50;;;;;;5031076;28;20049;-73
2022/03/14 11:22:29;;;;;;;14.73;7.35;;;12.40;93.10;;;;;;5032993;28;20462;-74
2022/03/14 11:24:58;;;;;;;10.32;6.53;;;12.40;93.20;;;;;;5032760;28;20052;-73
2022/03/14 11:27:35;;;;;;;19.05;10.75;;;12.40;92.80;;;;;;5032625;28;20040;-73
2022/03/14 11:30:09;;;;;;;33.72;20.05;;;12.40;92.80;;;;;;5032336;28;20034;-73
2022/03/14 11:32:36;;;;;;;9.93;5.95;;;12.40;93.20;;;;;;5032538;28;20260;-77
2022/03/14 11:35:06;;;;;;;8.20;5.63;;;12.50;93.00;;;;;;5032099;28;20131;-75
2022/03/14 11:37:32;;;;;;;13.70;5.55;;;12.60;93.00;;;;;;5032566;28;20029;-76
2022/03/14 11:40:00;;;;;;;13.68;7.15;;;12.60;93.60;;;;;;5031920;28;20607;-78
2022/03/14 11:42:25;;;;;;;6.07;4.38;;;12.80;93.10;;;;;;5032201;28;20037;-75
2022/03/14 11:44:52;;;;;;;23.45;12.95;;;12.60;93.20;;;;;;5031703;28;20385;-75
2022/03/14 11:47:22;;;;;;;6.78;4.82;;;12.70;92.90;;;;;;5031960;28;20030;-73
2022/03/14 11:49:48;;;;;;;7.78;4.45;;;12.70;93.40;;;;;;5032300;28;20033;-73
2022/03/14 11:52:19;;;;;;;6.30;4.27;;;12.80;93.10;;;;;;5031628;28;20363;-73
2022/03/14 11:54:55;;;;;;;7.65;4.38;;;12.80;93.60;;;;;;5031585;28;20033;-74
2022/03/14 11:57:41;;;;;;;8.90;4.80;;;12.90;93.40;;;;;;5031823;28;20057;-73
2022/03/14 12:00:22;;;;;;;5.90;4.25;;;12.90;93.40;;;;;;5031531;28;20042;-71
2022/03/14 12:02:55;;;;;;;6.55;3.92;;;12.80;93.70;;;;;;5032844;28;20119;-71
2022/03/14 12:05:41;;;;;;;4.68;3.42;;;13.00;93.60;;;;;;5031692;28;20045;-72
2022/03/14 12:08:07;;;;;;;4.82;3.28;;;13.00;93.30;;;;;;5030119;28;20033;-72
2022/03/14 12:10:34;;;;;;;8.18;3.78;;;13.00;93.40;;;;;;5031874;28;20018;-71
2022/03/14 12:13:02;;;;;;;5.75;4.00;;;12.80;93.80;;;;;;5031803;28;20033;-70
2022/03/14 12:15:48;;;;;;;5.15;4.03;;;12.70;93.70;;;;;;5032852;28;20046;-72
2022/03/14 12:18:23;;;;;;;5.82;3.80;;;12.70;93.70;;;;;;5032150;28;20409;-70
2022/03/14 12:20:55;;;;;;;5.82;3.90;;;12.70;93.80;;;;;;5031125;28;20650;-72
2022/03/14 12:23:23;;;;;;;7.82;4.30;;;12.50;94.20;;;;;;5031391;28;20351;-73
2022/03/14 12:25:48;;;;;;;8.07;4.20;;;12.50;94.20;;;;;;5030981;28;20021;-72
2022/03/14 12:28:34;;;;;;;5.78;3.53;;;12.50;94.50;;;;;;5031464;28;20294;-72
2022/03/14 12:31:11;;;;;;;6.32;3.85;;;12.60;94.50;;;;;;5031420;28;20542;-71
2022/03/14 12:33:42;;;;;;;7.78;4.35;;;12.50;94.60;;;;;;5031480;28;20045;-71
2022/03/14 12:36:22;;;;;;;7.40;4.32;;;12.50;94.70;;;;;;5031638;28;20029;-72
2022/03/14 12:39:06;;;;;;;7.93;5.25;;;12.50;94.80;;;;;;5030937;28;20635;-70
2022/03/14 12:41:41;;;;;;;8.38;4.30;;;12.50;94.80;;;;;;5031816;28;20460;-72
2022/03/14 12:44:27;;;;;;;7.05;4.43;;;12.50;94.70;;;;;;5031047;28;20063;-73
2022/03/14 12:46:59;;;;;;;7.70;4.63;;;12.50;95.10;;;;;;5032268;28;20021;-71
2022/03/14 12:49:26;;;;;;;6.80;4.55;;;12.40;95.30;;;;;;5030591;28;20296;-72
2022/03/14 12:52:18;;;;;;;7.22;4.43;;;12.40;95.30;;;;;;5031624;28;20291;-74
2022/03/14 12:54:45;;;;;;;6.13;3.70;;;12.40;95.00;;;;;;5031504;28;20029;-73
2022/03/14 12:57:11;;;;;;;6.13;3.90;;;12.30;95.30;;;;;;5030772;28;20458;-72
2022/03/14 12:59:41;;;;;;;5.95;3.85;;;12.30;95.20;;;;;;5031009;28;20057;-70